deformed-offering

Nearby METAR Reports

 

KSJC - San Jose, California, USA
Distance from station: NE 9mi, 14km
Updated: Sun, 17-Jan-2021 3:53pm PST
Few Clouds
Few Clouds
 Wind from NW
Wind: NW 8 mph , 13 km/h
Temperature: 77°F , 25°C
Dew Point: 34°F , 1°C
Humidity: 21%
Barometer: 30.01 inHg , 1016.3 hPa
Clouds: Few Clouds
Visibility: 10 miles , 16 km
Cloud details: Few Clouds 8000 ft
Few Clouds 16000 ft
2021/01/17 23:53 KSJC 172353Z 31007KT 10SM FEW080 FEW160 25/01 A3001 RMK AO2 SLP160 T02500011 10256 20144 56021
KRHV - San Jose/Reid, California, USA
Distance from station: ENE 12mi, 19km
Updated: Sun, 17-Jan-2021 3:51pm PST
Clear
Clear
 Wind from NW
Wind: NW 6 mph , 9 km/h
Temperature: 75°F , 24°C
Dew Point: 37°F , 3°C
Humidity: 25%
Barometer: 30.01 inHg , 1016.3 hPa
Clouds: Clear
Visibility: 10 miles , 16 km
2021/01/17 23:51 KRHV 172351Z 31005KT 10SM SKC 24/03 A3001
 
KPAO - Palo Alto, California, USA
Distance from station: NNW 14mi, 23km
Updated: Sun, 17-Jan-2021 3:47pm PST
Clear
Clear
 Wind from N
Wind: N 5 mph , 7 km/h
Temperature: 66°F , 19°C
Dew Point: 50°F , 10°C
Humidity: 56%
Barometer: 30.02 inHg , 1016.6 hPa
Clouds: Clear
Visibility: 10 miles , 16 km
2021/01/17 23:47 KPAO 172347Z 01004KT 10SM SKC 19/10 A3002
KSQL - San Carlos Airpo, California, USA
Distance from station: NW 21mi, 34km
Updated: Sun, 17-Jan-2021 3:56pm PST
Clear
Clear
 Wind from N
Wind: N 6 mph , 9 km/h
Temperature: 70°F , 21°C
Dew Point: 45°F , 7°C
Humidity: 40%
Barometer: 30.03 inHg , 1016.9 hPa
Clouds: Clear
Visibility: 10 miles , 16 km
2021/01/17 23:56 KSQL 172356Z 36005KT 10SM SKC 21/07 A3003
 
KWVI - Watsonville, California, USA
Distance from station: SSE 27mi, 44km
Updated: Sun, 17-Jan-2021 3:53pm PST
Clear
Clear
 Wind from W
Wind: W 6 mph , 9 km/h
Temperature: 73°F , 23°C
Dew Point: 46°F , 8°C
Humidity: 38%
Barometer: 30.00 inHg , 1015.9 hPa
Clouds: Clear
Visibility: 10 miles , 16 km
2021/01/17 23:53 KWVI 172353Z AUTO 27005KT 10SM CLR 23/08 A3000 RMK AO2 SLP160 T02330083 10261 20161 56017
KHWD - Hayward, California, USA
Distance from station: N 28mi, 44km
Updated: Sun, 17-Jan-2021 3:54pm PST
Clear
Clear
 Wind from WNW
Wind: WNW 6 mph , 9 km/h
Temperature: 72°F , 22°C
Dew Point: 41°F , 5°C
Humidity: 33%
Barometer: 30.02 inHg , 1016.6 hPa
Clouds: Clear
Visibility: 10 miles , 16 km
2021/01/17 23:54 KHWD 172354Z 29005KT 10SM CLR 22/05 A3002 RMK AO2 SLP174 T02170050 10217 20161 56019
 
KSFO - San Francisco, California, USA
Distance from station: NW 30mi, 49km
Updated: Sun, 17-Jan-2021 3:56pm PST
Few Clouds
Few Clouds
 Wind from NNW
Wind: NNW 5 mph , 7 km/h
Temperature: 73°F , 23°C
Dew Point: 43°F , 6°C
Humidity: 33%
Barometer: 30.02 inHg , 1016.6 hPa
Clouds: Few Clouds
Visibility: 10 miles , 16 km
Cloud details: Few Clouds 20000 ft
2021/01/17 23:56 KSFO 172356Z 33004KT 10SM FEW200 23/06 A3002 RMK AO2 SLP165 T02280061 10233 20172 56020
KHAF - Half Moon Bay, California, USA
Distance from station: WNW 31mi, 50km
Updated: Sun, 17-Jan-2021 3:55pm PST
Clear
Clear
 Wind from NNW
Wind: NNW 8 mph , 13 km/h
Temperature: 66°F , 19°C
Dew Point: 45°F , 7°C
Humidity: 46%
Barometer: 30.03 inHg , 1016.9 hPa
Clouds: Clear
Visibility: 9 miles , 14 km
2021/01/17 23:55 KHAF 172355Z AUTO 33007KT 9SM CLR 19/07 A3003 RMK AO2
 
KLVK - Livermore, California, USA
Distance from station: NNE 31mi, 51km
Updated: Sun, 17-Jan-2021 3:53pm PST
Clear
Clear
 Wind from E
Wind: E 10 mph , 17 km/h
Temperature: 73°F , 23°C
Dew Point: 34°F , 1°C
Humidity: 23%
Barometer: 30.02 inHg , 1016.6 hPa
Clouds: Clear
Visibility: 10 miles , 16 km
2021/01/17 23:53 KLVK 172353Z 08009KT 10SM CLR 23/01 A3002 RMK AO2 SLP162 T02330011 10244 20172 56020
KOAK - Oakland, California, USA
Distance from station: NNW 33mi, 53km
Updated: Sun, 17-Jan-2021 3:53pm PST
Partly Cloudy
Partly Cloudy
 Wind from NW
Wind: NW 8 mph , 13 km/h
Temperature: 72°F , 22°C
Dew Point: 43°F , 6°C
Humidity: 36%
Barometer: 30.02 inHg , 1016.6 hPa
Clouds: Partly Cloudy
Visibility: 10 miles , 16 km
Cloud details: Partly Cloudy 25000 ft
2021/01/17 23:53 KOAK 172353Z 32007KT 10SM SCT250 22/06 A3002 RMK AO2 SLP166 T02220056 10233 20161 56020
 
KCVH - Hollister Muni, California, USA
Distance from station: SE 42mi, 68km
Updated: Sun, 17-Jan-2021 3:55pm PST
Clear
Clear
 Wind from NNW
Wind: NNW 7 mph , 11 km/h
Temperature: 77°F , 25°C
Dew Point: 37°F , 3°C
Humidity: 24%
Barometer: 30.01 inHg , 1016.3 hPa
Clouds: Clear
Visibility: 10 miles , 16 km
2021/01/17 23:55 KCVH 172355Z AUTO 33006KT 10SM CLR 25/03 A3001 RMK A01
KSNS - Salinas, California, USA
Distance from station: SSE 48mi, 77km
Updated: Sun, 17-Jan-2021 3:53pm PST
Clear
Clear
 Wind from N
Wind: N 10 mph , 17 km/h
Temperature: 81°F , 27°C
Dew Point: 43°F , 6°C
Humidity: 26%
Barometer: 29.98 inHg , 1015.2 hPa
Clouds: Clear
Visibility: 10 miles , 16 km
2021/01/17 23:53 KSNS 172353Z 35009KT 10SM CLR 27/06 A2998 RMK AO2 SLP162 T02720061 10283 20150 56020
 
KMRY - Monterey, California, USA
Distance from station: SSE 49mi, 78km
Updated: Sun, 17-Jan-2021 3:54pm PST
Clear
Clear
 Wind from W
Wind: W 3 mph , 6 km/h
Temperature: 70°F , 21°C
Dew Point: 45°F , 7°C
Humidity: 40%
Barometer: 30.01 inHg , 1016.3 hPa
Clouds: Clear
Visibility: 10 miles , 16 km
2021/01/17 23:54 KMRY 172354Z 27003KT 10SM CLR 21/07 A3001 RMK AO2 SLP173 T02060067 10261 20200 56013
KCCR - Concord, California, USA
Distance from station: N 50mi, 81km
Updated: Sun, 17-Jan-2021 3:53pm PST
Clear
Clear
 Wind from NNW
Wind: NNW 5 mph , 7 km/h
Temperature: 75°F , 24°C
Dew Point: 43°F , 6°C
Humidity: 31%
Barometer: 30.02 inHg , 1016.6 hPa
Clouds: Clear
Visibility: 10 miles , 16 km
2021/01/17 23:53 KCCR 172353Z 34004KT 10SM CLR 24/06 A3002 RMK AO2 SLP152 T02390056 10244 20172 56023
deformed-offering